Time;durP1;ratioP1;P1;durP2;ratioP2;P2;SDS_P1;SDS_P2;PMS_P1;PMS_P2;Temp;Humidity;BMP_temperature;BMP_pressure;BME280_temperature;BME280_humidity;BME280_pressure;Samples;Min_cycle;Max_cycle;Signal;HPM_P1;HPM_P2
2023/12/17 00:01:59;;;;;;;8.20;7.37;;;14.30;62.90;;;;;;4954069;28;20563;-77
2023/12/17 00:04:27;;;;;;;9.07;8.20;;;14.20;63.30;;;;;;4953011;28;20464;-84
2023/12/17 00:06:55;;;;;;;8.73;7.93;;;14.20;63.00;;;;;;4955274;28;20962;-79
2023/12/17 00:09:24;;;;;;;9.10;7.43;;;14.20;63.10;;;;;;4954660;28;20463;-77
2023/12/17 00:11:52;;;;;;;7.63;6.00;;;14.20;63.60;;;;;;4956042;28;20546;-78
2023/12/17 00:14:21;;;;;;;10.40;8.87;;;14.20;63.80;;;;;;4954334;28;20527;-78
2023/12/17 00:16:50;;;;;;;10.07;8.40;;;14.20;63.10;;;;;;4957738;28;20546;-77
2023/12/17 00:19:18;;;;;;;7.33;6.70;;;14.00;63.20;;;;;;4955859;28;20967;-79
2023/12/17 00:21:46;;;;;;;8.40;7.70;;;14.00;63.40;;;;;;4951707;28;20817;-77
2023/12/17 00:24:14;;;;;;;7.30;6.60;;;14.00;63.60;;;;;;4958414;28;21019;-77
2023/12/17 00:26:42;;;;;;;8.10;6.97;;;13.80;63.20;;;;;;4957375;28;20543;-77
2023/12/17 00:29:11;;;;;;;7.77;6.83;;;13.60;64.50;;;;;;4957840;28;20459;-81
2023/12/17 00:31:40;;;;;;;8.27;6.60;;;13.70;65.20;;;;;;4963018;28;20451;-77
2023/12/17 00:34:08;;;;;;;7.00;6.40;;;13.80;65.10;;;;;;4958736;28;20507;-77
2023/12/17 00:36:37;;;;;;;6.47;5.87;;;13.80;64.50;;;;;;4953269;28;20508;-77
2023/12/17 00:39:05;;;;;;;7.60;6.90;;;13.90;63.80;;;;;;4941720;28;21024;-80
2023/12/17 00:41:34;;;;;;;7.50;6.80;;;13.90;63.40;;;;;;4953158;28;20447;-81
2023/12/17 00:44:02;;;;;;;8.23;7.43;;;14.00;63.60;;;;;;4961591;28;20481;-83
2023/12/17 00:46:30;;;;;;;8.10;6.40;;;14.00;63.60;;;;;;4955174;28;20488;-77
2023/12/17 00:48:59;;;;;;;6.67;6.07;;;14.00;63.30;;;;;;4956922;28;20452;-76
2023/12/17 00:51:28;;;;;;;7.33;6.63;;;14.10;63.30;;;;;;4959424;28;20894;-77
2023/12/17 00:53:56;;;;;;;8.20;7.00;;;14.10;63.10;;;;;;4947821;28;20519;-79
2023/12/17 00:56:24;;;;;;;8.90;6.83;;;14.00;62.90;;;;;;4952336;28;20988;-77
2023/12/17 00:58:52;;;;;;;9.53;7.03;;;14.00;62.60;;;;;;4955271;28;20499;-77
2023/12/17 01:01:20;;;;;;;8.03;6.43;;;13.90;63.20;;;;;;4946372;28;20456;-79
2023/12/17 01:03:48;;;;;;;7.20;6.50;;;13.80;63.80;;;;;;4955984;28;20454;-76
2023/12/17 01:06:18;;;;;;;6.80;5.83;;;13.90;63.90;;;;;;4952022;28;20523;-77
2023/12/17 01:08:46;;;;;;;7.70;7.00;;;14.00;63.50;;;;;;4958500;28;20471;-77
2023/12/17 01:11:14;;;;;;;7.87;7.07;;;14.00;63.10;;;;;;4955638;28;20458;-77
2023/12/17 01:13:43;;;;;;;8.63;7.40;;;14.10;62.80;;;;;;4957296;28;20519;-77
2023/12/17 01:16:11;;;;;;;8.40;7.20;;;14.10;62.30;;;;;;4951567;28;20495;-80
2023/12/17 01:18:39;;;;;;;8.73;7.67;;;13.90;62.50;;;;;;4956496;28;20452;-77
2023/12/17 01:21:08;;;;;;;7.03;6.40;;;13.80;63.20;;;;;;4963807;28;20578;-78
2023/12/17 01:23:38;;;;;;;8.60;7.07;;;13.60;63.80;;;;;;4954463;28;20447;-81
2023/12/17 01:26:07;;;;;;;9.87;7.17;;;13.70;64.10;;;;;;4957251;28;20455;-78
2023/12/17 01:28:35;;;;;;;7.47;6.20;;;13.70;63.50;;;;;;4952788;28;20444;-80
2023/12/17 01:31:03;;;;;;;6.70;6.20;;;13.80;63.00;;;;;;4955135;28;20483;-80
2023/12/17 01:33:32;;;;;;;6.27;5.70;;;13.80;63.10;;;;;;4951702;28;20466;-77
2023/12/17 01:36:00;;;;;;;7.33;6.67;;;13.70;63.10;;;;;;4958033;28;20538;-77
2023/12/17 01:38:28;;;;;;;7.70;6.73;;;13.70;63.30;;;;;;4957768;28;20479;-77
2023/12/17 01:40:58;;;;;;;7.23;6.57;;;13.70;63.40;;;;;;4959060;28;20470;-78
2023/12/17 01:43:26;;;;;;;6.93;6.33;;;13.70;63.10;;;;;;4955574;28;20491;-82
2023/12/17 01:45:55;;;;;;;7.07;6.40;;;13.80;63.40;;;;;;4958707;28;20455;-77
2023/12/17 01:48:26;;;;;;;7.47;6.53;;;13.80;62.70;;;;;;4959615;28;20459;-77
2023/12/17 01:50:55;;;;;;;8.00;7.20;;;13.80;63.50;;;;;;4950087;28;21000;-80
2023/12/17 01:53:24;;;;;;;8.00;6.73;;;13.80;62.90;;;;;;4953736;28;20456;-77
2023/12/17 01:55:53;;;;;;;7.63;6.93;;;13.80;62.40;;;;;;4971322;28;20454;-77
2023/12/17 01:58:23;;;;;;;6.65;6.00;;;13.80;63.00;;;;;;4966178;28;20476;-77
2023/12/17 02:00:51;;;;;;;6.83;6.13;;;13.80;63.00;;;;;;4966201;28;20207;-77
2023/12/17 02:03:20;;;;;;;7.07;6.37;;;13.80;63.70;;;;;;4953407;28;20449;-79
2023/12/17 02:05:48;;;;;;;7.07;6.37;;;13.90;62.70;;;;;;4963735;28;20529;-77
2023/12/17 02:08:16;;;;;;;6.33;5.70;;;13.90;62.90;;;;;;4959803;28;20552;-80
2023/12/17 02:10:44;;;;;;;6.23;5.70;;;14.00;63.10;;;;;;4965934;28;20491;-77
2023/12/17 02:13:15;;;;;;;7.80;7.10;;;14.10;62.70;;;;;;4953786;28;20443;-77
2023/12/17 02:15:44;;;;;;;6.90;5.97;;;14.10;62.00;;;;;;4963198;28;20839;-82
2023/12/17 02:18:12;;;;;;;8.00;7.20;;;14.10;61.90;;;;;;4956450;28;20563;-77
2023/12/17 02:20:46;;;;;;;6.37;5.80;;;14.10;61.90;;;;;;4961671;28;20462;-77
2023/12/17 02:23:16;;;;;;;6.73;6.03;;;14.10;62.00;;;;;;4967725;28;20538;-79
2023/12/17 02:25:44;;;;;;;6.73;6.03;;;14.10;61.80;;;;;;4962281;28;20512;-77
2023/12/17 02:28:13;;;;;;;6.30;5.80;;;14.00;61.70;;;;;;4946818;28;20467;-77
2023/12/17 02:30:41;;;;;;;8.60;7.60;;;14.00;62.30;;;;;;4954340;28;20450;-78
2023/12/17 02:33:09;;;;;;;7.00;6.40;;;14.00;62.00;;;;;;4947123;28;20835;-78
2023/12/17 02:35:37;;;;;;;6.00;5.40;;;14.00;62.40;;;;;;4953494;28;20471;-78
2023/12/17 02:38:06;;;;;;;6.30;5.70;;;14.10;62.10;;;;;;4963585;28;20558;-77
2023/12/17 02:40:35;;;;;;;7.43;6.77;;;14.10;62.30;;;;;;4964902;28;20553;-83
2023/12/17 02:43:03;;;;;;;6.30;5.70;;;14.10;61.50;;;;;;4969538;28;20438;-77
2023/12/17 02:45:31;;;;;;;6.10;5.60;;;14.00;61.50;;;;;;4968798;28;20505;-77
2023/12/17 02:48:00;;;;;;;6.43;5.83;;;14.00;62.50;;;;;;4947743;28;20944;-77
2023/12/17 02:50:29;;;;;;;6.60;6.10;;;14.00;62.60;;;;;;4939987;28;20459;-77
2023/12/17 02:52:57;;;;;;;6.37;5.83;;;13.90;62.00;;;;;;4950033;28;20452;-86
2023/12/17 02:55:25;;;;;;;7.60;6.80;;;14.00;61.90;;;;;;4969632;28;20497;-78
2023/12/17 02:57:55;;;;;;;9.53;7.80;;;13.90;61.00;;;;;;4970781;28;20470;-82
2023/12/17 03:00:23;;;;;;;6.23;5.73;;;13.80;61.20;;;;;;4956394;28;20440;-77
2023/12/17 03:02:51;;;;;;;7.17;6.47;;;13.70;62.20;;;;;;4962338;28;20475;-77
2023/12/17 03:05:20;;;;;;;7.50;6.80;;;13.70;62.50;;;;;;4959730;28;20482;-78
2023/12/17 03:07:48;;;;;;;6.47;5.83;;;13.60;61.90;;;;;;4967405;28;20450;-77
2023/12/17 03:10:16;;;;;;;6.70;6.07;;;13.50;62.70;;;;;;4953708;29;20455;-77
2023/12/17 03:12:44;;;;;;;7.37;6.43;;;13.50;62.70;;;;;;4954793;28;20533;-82
2023/12/17 03:15:14;;;;;;;8.10;5.93;;;13.50;62.70;;;;;;4955531;29;20583;-77
2023/12/17 03:17:42;;;;;;;9.27;7.80;;;13.60;62.80;;;;;;4945579;28;20487;-77
2023/12/17 03:20:11;;;;;;;7.55;6.80;;;13.60;61.50;;;;;;4953233;29;20204;-77
2023/12/17 03:22:39;;;;;;;6.47;5.88;;;13.60;61.40;;;;;;4952287;28;20204;-77
2023/12/17 03:25:08;;;;;;;6.90;6.20;;;13.50;62.40;;;;;;4956453;28;20214;-78
2023/12/17 03:27:37;;;;;;;6.72;6.10;;;13.50;62.60;;;;;;4952840;28;20723;-81
2023/12/17 03:30:06;;;;;;;6.10;5.50;;;13.60;62.30;;;;;;4958012;28;20251;-78
2023/12/17 03:32:36;;;;;;;8.95;6.50;;;13.60;61.90;;;;;;4953774;28;20555;-83
2023/12/17 03:35:05;;;;;;;7.63;6.83;;;13.60;61.70;;;;;;4953443;28;20200;-81
2023/12/17 03:37:34;;;;;;;7.03;6.20;;;13.60;61.50;;;;;;4952944;29;20452;-77
2023/12/17 03:40:02;;;;;;;7.63;6.93;;;13.50;61.50;;;;;;4954243;28;20462;-77
2023/12/17 03:42:30;;;;;;;5.90;5.30;;;13.50;61.60;;;;;;4962809;28;20806;-78
2023/12/17 03:44:58;;;;;;;7.25;6.55;;;13.50;62.00;;;;;;4967551;28;20451;-80
2023/12/17 03:47:27;;;;;;;6.53;6.00;;;13.50;62.40;;;;;;4954746;28;20228;-78
2023/12/17 03:49:57;;;;;;;6.90;6.27;;;13.50;62.30;;;;;;4955655;28;20439;-80
2023/12/17 03:52:25;;;;;;;6.45;5.90;;;13.50;62.30;;;;;;4960643;28;20526;-81
2023/12/17 03:54:53;;;;;;;8.00;7.03;;;13.50;62.40;;;;;;4945796;29;20251;-77
2023/12/17 03:57:21;;;;;;;6.97;6.37;;;13.50;61.30;;;;;;4946436;28;20460;-77
2023/12/17 03:59:50;;;;;;;7.00;6.30;;;13.50;61.90;;;;;;4951321;29;20480;-79
2023/12/17 04:02:18;;;;;;;8.70;7.90;;;13.60;61.80;;;;;;4946962;28;20467;-82
2023/12/17 04:04:46;;;;;;;8.73;7.90;;;13.60;61.00;;;;;;4951294;28;20506;-77
2023/12/17 04:07:16;;;;;;;7.95;7.15;;;13.50;60.60;;;;;;4955100;28;20526;-77
2023/12/17 04:09:44;;;;;;;8.75;7.78;;;13.30;61.10;;;;;;4952629;29;20275;-77
2023/12/17 04:12:12;;;;;;;8.93;8.05;;;13.10;61.50;;;;;;4955812;29;20266;-77
2023/12/17 04:14:41;;;;;;;9.40;8.23;;;12.90;61.80;;;;;;4952635;28;20759;-79
2023/12/17 04:17:09;;;;;;;6.93;6.22;;;12.80;62.00;;;;;;4952293;28;20215;-78
2023/12/17 04:19:37;;;;;;;7.18;6.53;;;12.70;62.40;;;;;;4954382;29;20211;-84
2023/12/17 04:22:05;;;;;;;7.50;6.80;;;12.60;62.50;;;;;;4953942;28;20680;-78
2023/12/17 04:24:35;;;;;;;7.70;6.55;;;12.70;62.80;;;;;;4956777;28;20200;-78
2023/12/17 04:27:04;;;;;;;6.70;5.97;;;12.70;62.40;;;;;;4946697;28;20669;-80
2023/12/17 04:29:32;;;;;;;8.60;7.78;;;12.70;62.20;;;;;;4945868;29;20223;-77
2023/12/17 04:32:00;;;;;;;9.32;8.38;;;12.70;62.00;;;;;;4939815;29;20200;-80
2023/12/17 04:34:28;;;;;;;7.65;6.53;;;12.60;62.40;;;;;;4954950;28;20184;-77
2023/12/17 04:36:59;;;;;;;7.55;6.85;;;12.40;63.00;;;;;;4947834;28;20239;-77
2023/12/17 04:39:28;;;;;;;7.93;7.13;;;12.40;63.30;;;;;;4953120;28;20243;-79
2023/12/17 04:41:58;;;;;;;7.68;6.47;;;12.40;63.30;;;;;;4955106;28;20200;-77
2023/12/17 04:44:26;;;;;;;8.57;7.70;;;12.40;63.20;;;;;;4938498;28;20200;-77
2023/12/17 04:46:56;;;;;;;9.98;7.15;;;12.40;63.30;;;;;;4954305;29;20220;-77
2023/12/17 04:49:24;;;;;;;9.18;7.47;;;12.40;62.80;;;;;;4955943;28;20550;-78
2023/12/17 04:51:52;;;;;;;7.13;6.43;;;12.40;62.60;;;;;;4954768;28;20189;-77
2023/12/17 04:54:20;;;;;;;8.15;7.18;;;12.40;63.40;;;;;;4954185;29;20209;-80
2023/12/17 04:56:49;;;;;;;9.73;7.75;;;12.40;63.40;;;;;;4953047;28;20204;-77
2023/12/17 04:59:18;;;;;;;7.82;7.05;;;12.50;63.20;;;;;;4951056;28;20289;-77
2023/12/17 05:01:46;;;;;;;8.02;7.07;;;12.50;62.70;;;;;;4953102;28;20322;-76
2023/12/17 05:04:16;;;;;;;7.53;6.75;;;12.60;63.90;;;;;;4954912;28;20208;-77
2023/12/17 05:06:45;;;;;;;9.35;7.10;;;12.70;63.80;;;;;;4954407;29;20235;-77
2023/12/17 05:09:13;;;;;;;8.38;7.60;;;12.70;62.30;;;;;;4945032;29;20204;-77
2023/12/17 05:11:41;;;;;;;10.50;7.70;;;12.70;61.80;;;;;;4935013;29;20208;-77
2023/12/17 05:14:09;;;;;;;7.22;6.63;;;12.60;62.80;;;;;;4943121;29;20204;-77
2023/12/17 05:16:41;;;;;;;7.05;6.32;;;12.60;62.90;;;;;;4950342;28;20212;-80
2023/12/17 05:19:10;;;;;;;7.68;6.90;;;12.60;63.40;;;;;;4965864;28;20212;-77
2023/12/17 05:21:38;;;;;;;7.70;6.90;;;12.80;62.40;;;;;;4968962;28;20648;-77
2023/12/17 05:24:07;;;;;;;8.20;6.95;;;12.90;62.20;;;;;;4972940;28;20192;-77
2023/12/17 05:26:35;;;;;;;8.93;6.82;;;12.80;62.50;;;;;;4972815;28;20331;-77
2023/12/17 05:29:03;;;;;;;7.45;6.82;;;12.80;63.40;;;;;;4963278;28;20551;-77
2023/12/17 05:31:31;;;;;;;8.50;7.63;;;12.80;62.60;;;;;;4942429;29;20278;-79
2023/12/17 05:34:01;;;;;;;8.38;7.57;;;12.80;62.30;;;;;;4953238;28;20192;-77
2023/12/17 05:36:29;;;;;;;7.70;6.47;;;12.60;62.70;;;;;;4954173;29;20188;-77
2023/12/17 05:38:57;;;;;;;7.18;6.20;;;12.40;63.40;;;;;;4952112;29;20308;-84
2023/12/17 05:41:26;;;;;;;8.27;7.38;;;12.50;64.00;;;;;;4950233;28;20257;-77
2023/12/17 05:43:54;;;;;;;9.05;7.55;;;12.60;63.70;;;;;;4961380;28;20227;-77
2023/12/17 05:46:22;;;;;;;10.63;7.28;;;12.70;63.30;;;;;;4963232;28;20202;-77
2023/12/17 05:48:50;;;;;;;7.80;7.05;;;12.70;63.40;;;;;;4953274;29;20259;-77
2023/12/17 05:51:20;;;;;;;10.48;7.80;;;12.70;63.80;;;;;;4943211;28;20196;-79
2023/12/17 05:53:48;;;;;;;8.43;7.40;;;12.60;63.60;;;;;;4933422;29;20185;-77
2023/12/17 05:56:17;;;;;;;8.52;7.32;;;12.60;63.70;;;;;;4955664;28;20200;-77
2023/12/17 05:58:45;;;;;;;7.45;6.75;;;12.50;64.10;;;;;;4950214;28;20208;-76
2023/12/17 06:01:13;;;;;;;9.55;6.57;;;12.50;64.20;;;;;;4948217;28;20200;-78
2023/12/17 06:03:41;;;;;;;10.27;9.07;;;12.50;64.60;;;;;;4944506;28;20204;-78
2023/12/17 06:06:10;;;;;;;9.73;7.60;;;12.60;64.20;;;;;;4934271;29;20204;-77
2023/12/17 06:08:39;;;;;;;9.45;7.45;;;12.50;63.90;;;;;;4934776;29;20602;-79
2023/12/17 06:11:07;;;;;;;8.13;7.35;;;12.40;64.40;;;;;;4953393;28;20189;-78
2023/12/17 06:13:36;;;;;;;9.60;7.63;;;12.40;64.10;;;;;;4953129;28;20247;-77
2023/12/17 06:16:05;;;;;;;6.70;5.95;;;12.50;64.40;;;;;;4955793;28;20298;-77
2023/12/17 06:18:33;;;;;;;8.07;7.00;;;12.40;64.00;;;;;;4954752;28;20208;-77
2023/12/17 06:21:01;;;;;;;9.32;6.18;;;12.20;64.60;;;;;;4952918;28;20240;-77
2023/12/17 06:23:31;;;;;;;9.43;7.13;;;12.20;64.70;;;;;;4952278;28;20183;-77
2023/12/17 06:26:04;;;;;;;6.80;6.20;;;12.10;64.40;;;;;;4936439;29;20231;-81
2023/12/17 06:28:32;;;;;;;6.78;6.18;;;12.10;64.90;;;;;;4934377;29;20429;-79
2023/12/17 06:31:01;;;;;;;6.65;5.82;;;12.20;64.50;;;;;;4952452;28;20270;-77
2023/12/17 06:33:29;;;;;;;6.97;6.38;;;12.20;64.10;;;;;;4944381;29;20690;-77
2023/12/17 06:35:58;;;;;;;7.82;6.93;;;12.30;64.30;;;;;;4941524;28;20215;-84
2023/12/17 06:38:26;;;;;;;7.47;6.45;;;12.30;64.10;;;;;;4952242;28;20189;-77
2023/12/17 06:40:55;;;;;;;7.85;7.05;;;12.30;63.70;;;;;;4952410;28;20208;-77
2023/12/17 06:43:25;;;;;;;7.55;6.85;;;12.30;63.90;;;;;;4933729;29;20704;-78
2023/12/17 06:45:55;;;;;;;6.85;6.18;;;12.30;64.40;;;;;;4948384;29;20671;-77
2023/12/17 06:48:24;;;;;;;8.30;7.03;;;12.30;64.50;;;;;;4952337;28;20197;-77
2023/12/17 06:50:52;;;;;;;9.75;7.15;;;12.40;63.60;;;;;;4952766;28;20196;-77
2023/12/17 06:53:20;;;;;;;8.38;6.85;;;12.30;63.70;;;;;;4955344;28;20195;-77
2023/12/17 06:55:49;;;;;;;7.18;6.47;;;12.20;63.90;;;;;;4971857;28;20606;-78
2023/12/17 06:58:17;;;;;;;7.28;6.57;;;12.00;64.40;;;;;;4966938;28;20232;-77
2023/12/17 07:00:46;;;;;;;7.10;6.40;;;11.90;64.90;;;;;;4944781;29;20213;-78
2023/12/17 07:03:18;;;;;;;7.60;6.72;;;11.90;64.70;;;;;;4933033;29;20292;-77
2023/12/17 07:05:46;;;;;;;7.10;6.40;;;11.80;64.70;;;;;;4950146;29;20201;-77
2023/12/17 07:08:15;;;;;;;6.50;5.90;;;11.80;64.80;;;;;;4950751;28;20212;-77
2023/12/17 07:10:43;;;;;;;6.93;6.05;;;11.90;64.80;;;;;;4950613;29;20212;-77
2023/12/17 07:13:11;;;;;;;8.05;6.82;;;11.80;65.60;;;;;;4953122;28;20214;-79
2023/12/17 07:15:40;;;;;;;7.22;6.13;;;12.00;65.40;;;;;;4945732;29;20295;-77
2023/12/17 07:18:10;;;;;;;8.52;7.20;;;12.10;64.80;;;;;;4954587;28;20199;-86
2023/12/17 07:20:38;;;;;;;5.97;5.47;;;12.00;63.80;;;;;;4955116;28;20216;-79
2023/12/17 07:23:07;;;;;;;7.57;6.13;;;11.90;64.50;;;;;;4951812;28;20304;-81
2023/12/17 07:25:36;;;;;;;8.65;6.45;;;11.90;65.00;;;;;;4950937;28;20239;-77
2023/12/17 07:28:04;;;;;;;7.07;6.05;;;12.00;64.40;;;;;;4952810;29;20227;-78
2023/12/17 07:30:33;;;;;;;5.55;5.00;;;11.90;64.40;;;;;;4949309;29;20196;-77
2023/12/17 07:33:01;;;;;;;8.20;6.35;;;11.90;64.50;;;;;;4942764;28;20729;-77
2023/12/17 07:35:31;;;;;;;6.43;5.75;;;12.00;65.00;;;;;;4933823;29;20249;-77
2023/12/17 07:37:59;;;;;;;7.30;5.53;;;12.00;64.70;;;;;;4966217;28;20203;-85
2023/12/17 07:40:27;;;;;;;6.50;5.60;;;12.10;64.50;;;;;;4956406;28;20240;-77
2023/12/17 07:42:56;;;;;;;7.20;5.50;;;12.10;63.70;;;;;;4969794;28;20254;-77
2023/12/17 07:45:24;;;;;;;6.35;5.75;;;12.00;63.40;;;;;;4949935;28;20704;-76
2023/12/17 07:47:52;;;;;;;7.55;6.80;;;11.90;64.00;;;;;;4964525;28;20439;-82
2023/12/17 07:50:21;;;;;;;10.48;6.30;;;11.90;64.50;;;;;;4956343;28;20719;-78
2023/12/17 07:52:50;;;;;;;8.73;5.93;;;11.90;64.50;;;;;;4955421;29;20533;-79
2023/12/17 07:55:18;;;;;;;6.90;6.10;;;11.70;64.30;;;;;;4955442;29;20228;-77
2023/12/17 07:57:47;;;;;;;6.22;5.65;;;11.80;64.40;;;;;;4955654;29;20235;-81
2023/12/17 08:00:16;;;;;;;7.35;6.28;;;11.90;64.50;;;;;;4955456;28;20266;-82
2023/12/17 08:02:45;;;;;;;7.60;6.95;;;12.00;64.80;;;;;;4947114;28;20732;-84
2023/12/17 08:05:13;;;;;;;7.63;6.25;;;12.20;64.10;;;;;;4959041;28;20212;-80
2023/12/17 08:07:41;;;;;;;6.60;6.00;;;12.30;63.80;;;;;;4946846;29;20606;-78
2023/12/17 08:10:11;;;;;;;7.03;6.30;;;12.20;63.20;;;;;;4949043;29;20200;-77
2023/12/17 08:12:40;;;;;;;6.72;5.85;;;12.10;63.40;;;;;;4951203;29;20547;-77
2023/12/17 08:15:09;;;;;;;6.65;6.05;;;12.10;63.70;;;;;;4948813;29;20620;-77
2023/12/17 08:17:37;;;;;;;6.35;5.75;;;12.10;63.70;;;;;;4952691;28;20307;-77
2023/12/17 08:20:07;;;;;;;6.68;6.07;;;12.20;63.40;;;;;;4953331;29;20800;-80
2023/12/17 08:22:35;;;;;;;7.72;6.35;;;12.20;63.80;;;;;;4944271;28;20216;-82
2023/12/17 08:25:04;;;;;;;7.63;6.82;;;12.10;63.60;;;;;;4945085;29;20204;-77
2023/12/17 08:27:33;;;;;;;6.28;5.68;;;11.90;64.00;;;;;;4946218;29;20221;-77
2023/12/17 08:30:02;;;;;;;6.50;5.90;;;11.80;64.50;;;;;;4948688;28;20255;-77
2023/12/17 08:32:31;;;;;;;6.05;5.43;;;11.90;65.80;;;;;;4936086;29;20193;-79
2023/12/17 08:35:00;;;;;;;7.88;6.47;;;12.20;64.20;;;;;;4954235;28;20187;-77
2023/12/17 08:37:29;;;;;;;6.53;5.90;;;12.20;63.60;;;;;;4952094;29;20260;-76
2023/12/17 08:39:58;;;;;;;6.35;5.75;;;12.20;63.50;;;;;;4959791;28;20258;-78
2023/12/17 08:42:26;;;;;;;7.07;6.30;;;12.20;64.10;;;;;;4955471;28;20208;-78
2023/12/17 08:44:56;;;;;;;6.60;5.90;;;12.30;64.10;;;;;;4954797;28;20208;-77
2023/12/17 08:47:24;;;;;;;5.87;5.27;;;12.30;64.00;;;;;;4963882;28;20455;-80
2023/12/17 08:49:52;;;;;;;7.00;6.30;;;12.20;63.60;;;;;;4958069;28;20463;-77
2023/12/17 08:52:21;;;;;;;5.95;5.35;;;12.20;64.80;;;;;;4960391;28;20465;-77
2023/12/17 08:54:49;;;;;;;6.87;6.03;;;12.20;64.60;;;;;;4953372;29;20251;-77
2023/12/17 08:57:17;;;;;;;7.60;6.88;;;12.30;63.70;;;;;;4950061;29;20469;-83
2023/12/17 08:59:45;;;;;;;6.97;6.28;;;12.30;64.70;;;;;;4957946;28;20207;-77
2023/12/17 09:02:15;;;;;;;7.50;6.73;;;12.30;64.40;;;;;;4963925;28;20208;-77
2023/12/17 09:04:43;;;;;;;6.90;5.72;;;12.20;64.10;;;;;;4952101;28;20463;-81
2023/12/17 09:07:11;;;;;;;6.60;6.00;;;12.30;64.70;;;;;;4952911;28;20207;-77
2023/12/17 09:09:39;;;;;;;5.95;5.45;;;12.40;64.40;;;;;;4947065;29;20452;-82
2023/12/17 09:12:08;;;;;;;5.80;5.20;;;12.50;64.00;;;;;;4945978;29;20262;-78
2023/12/17 09:14:36;;;;;;;12.00;6.67;;;12.70;64.20;;;;;;4955274;28;21117;-77
2023/12/17 09:17:06;;;;;;;6.07;5.53;;;12.80;64.00;;;;;;4940858;28;20471;-77
2023/12/17 09:19:36;;;;;;;6.57;5.00;;;12.80;64.40;;;;;;4949089;28;20515;-77
2023/12/17 09:22:04;;;;;;;8.37;6.63;;;12.70;65.00;;;;;;4956921;28;20510;-78
2023/12/17 09:24:33;;;;;;;5.50;5.00;;;12.80;64.30;;;;;;4960794;28;20486;-79
2023/12/17 09:27:02;;;;;;;6.33;5.83;;;12.70;65.20;;;;;;4943200;29;20966;-77
2023/12/17 09:29:30;;;;;;;5.50;4.97;;;12.80;65.00;;;;;;4948641;28;20474;-77
2023/12/17 09:31:58;;;;;;;8.10;6.60;;;12.80;65.40;;;;;;4937635;28;20437;-82
2023/12/17 09:34:30;;;;;;;5.70;4.60;;;13.00;64.90;;;;;;4939083;29;20452;-80
2023/12/17 09:37:00;;;;;;;6.13;4.77;;;13.10;65.00;;;;;;4950804;28;20219;-80
2023/12/17 09:39:28;;;;;;;8.23;7.37;;;13.30;64.50;;;;;;4949030;28;20459;-77
2023/12/17 09:41:57;;;;;;;6.50;5.90;;;13.50;63.10;;;;;;4946792;29;20490;-77
2023/12/17 09:44:27;;;;;;;6.13;5.60;;;13.40;63.30;;;;;;4944394;28;20456;-81
2023/12/17 09:46:55;;;;;;;7.47;6.10;;;13.40;63.30;;;;;;4954785;28;20471;-78
2023/12/17 09:49:23;;;;;;;5.53;5.13;;;13.40;62.60;;;;;;4943956;28;20464;-78
2023/12/17 09:52:00;;;;;;;6.50;5.90;;;13.50;62.60;;;;;;4945186;28;20467;-77
2023/12/17 09:54:29;;;;;;;9.50;6.93;;;13.60;63.00;;;;;;4963766;28;20527;-83
2023/12/17 09:56:58;;;;;;;7.63;7.00;;;13.80;62.20;;;;;;4950789;28;20461;-81
2023/12/17 09:59:26;;;;;;;7.40;6.70;;;13.80;61.70;;;;;;4945214;28;21035;-77
2023/12/17 10:01:54;;;;;;;5.90;5.37;;;13.80;61.50;;;;;;4956464;28;20967;-77
2023/12/17 10:04:24;;;;;;;6.10;5.50;;;13.90;62.60;;;;;;4944792;28;20563;-77
2023/12/17 10:06:55;;;;;;;6.00;5.43;;;13.90;62.00;;;;;;4964287;28;20459;-77
2023/12/17 10:09:25;;;;;;;6.27;5.63;;;14.00;62.50;;;;;;4949713;28;20452;-81
2023/12/17 10:11:56;;;;;;;6.40;5.80;;;14.10;62.30;;;;;;4948599;28;20463;-77
2023/12/17 10:14:26;;;;;;;8.93;7.07;;;14.30;61.00;;;;;;4950011;28;20503;-78
2023/12/17 10:16:54;;;;;;;7.27;6.53;;;14.30;61.00;;;;;;4954808;28;20464;-84
2023/12/17 10:19:23;;;;;;;8.73;6.60;;;14.20;60.40;;;;;;4946265;29;20515;-78
2023/12/17 10:21:55;;;;;;;6.07;5.57;;;14.00;60.50;;;;;;4937485;28;20539;-78
2023/12/17 10:24:36;;;;;;;6.27;5.70;;;14.10;60.70;;;;;;4933088;29;20932;-78
2023/12/17 10:27:16;;;;;;;7.20;6.60;;;14.20;60.80;;;;;;4949398;28;20459;-81
2023/12/17 10:29:49;;;;;;;9.40;6.50;;;14.30;60.70;;;;;;4944960;28;20463;-77
2023/12/17 10:32:22;;;;;;;7.60;6.73;;;14.50;60.40;;;;;;4944033;28;20839;-79
2023/12/17 10:34:51;;;;;;;7.00;6.40;;;14.60;60.20;;;;;;4943614;28;20470;-80
2023/12/17 10:37:21;;;;;;;4.20;3.90;;;14.90;61.40;;;;;;4948269;28;20503;-77
2023/12/17 10:39:54;;;;;;;6.10;4.43;;;15.40;60.60;;;;;;4955066;28;20462;-77
2023/12/17 10:42:25;;;;;;;6.47;5.90;;;15.90;58.70;;;;;;4945055;28;20483;-79
2023/12/17 10:44:55;;;;;;;7.90;7.20;;;16.50;57.40;;;;;;4959498;28;20442;-79
2023/12/17 10:47:26;;;;;;;8.83;7.93;;;16.50;54.60;;;;;;4943551;28;20520;-82
2023/12/17 10:49:54;;;;;;;7.17;6.57;;;16.10;54.90;;;;;;4949205;28;20460;-83
2023/12/17 10:52:23;;;;;;;7.43;6.73;;;15.90;56.00;;;;;;4951011;28;20519;-79
2023/12/17 10:54:53;;;;;;;8.93;6.73;;;15.80;55.90;;;;;;4939498;28;20465;-80
2023/12/17 10:57:25;;;;;;;8.03;7.23;;;15.80;56.10;;;;;;4946451;28;20869;-80
2023/12/17 10:59:56;;;;;;;7.73;7.03;;;15.80;56.50;;;;;;4949580;28;20456;-79
2023/12/17 11:02:28;;;;;;;7.70;7.00;;;15.70;57.40;;;;;;4940685;29;20562;-77
2023/12/17 11:04:57;;;;;;;8.10;7.30;;;15.80;57.50;;;;;;4947507;28;20520;-83
2023/12/17 11:07:26;;;;;;;6.73;6.13;;;15.80;56.90;;;;;;4943246;28;20489;-80
2023/12/17 11:10:10;;;;;;;6.70;6.10;;;15.80;57.30;;;;;;4951251;28;20451;-82
2023/12/17 11:12:40;;;;;;;8.13;7.03;;;15.90;56.80;;;;;;4941979;28;20459;-78
2023/12/17 11:15:09;;;;;;;7.00;6.30;;;16.00;57.00;;;;;;4952469;28;20486;-79
2023/12/17 11:17:39;;;;;;;6.40;5.80;;;16.00;57.00;;;;;;4943379;29;20555;-79
2023/12/17 11:20:12;;;;;;;8.43;6.87;;;16.10;57.30;;;;;;4945026;28;20451;-82
2023/12/17 11:22:40;;;;;;;7.20;6.50;;;16.20;56.60;;;;;;4950072;28;20596;-83
2023/12/17 11:25:12;;;;;;;7.90;7.20;;;16.30;56.30;;;;;;4949962;28;20472;-79
2023/12/17 11:27:41;;;;;;;9.10;8.20;;;16.30;56.30;;;;;;4957972;28;20454;-84
2023/12/17 11:30:27;;;;;;;7.77;7.07;;;16.30;55.90;;;;;;4952707;28;21017;-78
2023/12/17 11:32:58;;;;;;;7.10;6.40;;;16.40;55.80;;;;;;4947590;28;20876;-85
2023/12/17 11:35:28;;;;;;;7.43;6.20;;;16.40;56.10;;;;;;4948145;28;20455;-79
2023/12/17 11:37:57;;;;;;;9.50;7.10;;;16.50;56.10;;;;;;4946009;28;20510;-87
2023/12/17 11:40:27;;;;;;;8.27;7.43;;;16.50;56.60;;;;;;4949034;28;20471;-84
2023/12/17 11:42:57;;;;;;;10.07;8.23;;;16.50;55.50;;;;;;4960384;28;20478;-86
2023/12/17 11:45:33;;;;;;;6.73;6.13;;;16.40;55.80;;;;;;4947131;28;20508;-79
2023/12/17 11:48:12;;;;;;;6.10;5.63;;;16.40;56.70;;;;;;4963456;28;20443;-80
2023/12/17 11:50:43;;;;;;;7.47;6.77;;;16.70;57.80;;;;;;4954526;28;20462;-80
2023/12/17 11:53:13;;;;;;;7.57;6.87;;;17.10;56.50;;;;;;4952780;28;20448;-79
2023/12/17 11:55:44;;;;;;;6.93;6.23;;;17.40;55.90;;;;;;4937511;29;20547;-79
2023/12/17 11:58:15;;;;;;;7.30;6.07;;;17.40;55.40;;;;;;4948428;28;20463;-79
2023/12/17 12:01:00;;;;;;;7.43;6.47;;;17.60;55.90;;;;;;4950310;28;20448;-79
2023/12/17 12:03:28;;;;;;;8.10;6.07;;;17.70;55.10;;;;;;4948984;28;20950;-79
2023/12/17 12:05:58;;;;;;;7.07;6.40;;;17.80;55.20;;;;;;4951330;28;20963;-80
2023/12/17 12:08:27;;;;;;;6.80;6.20;;;17.90;54.80;;;;;;4952545;28;20462;-79
2023/12/17 12:10:56;;;;;;;7.47;6.73;;;18.10;54.90;;;;;;4948285;28;20466;-84
2023/12/17 12:13:25;;;;;;;7.83;5.40;;;18.10;54.80;;;;;;4964631;28;20462;-80
2023/12/17 12:15:53;;;;;;;7.90;5.63;;;18.30;55.30;;;;;;4948215;28;20502;-80
2023/12/17 12:18:21;;;;;;;6.40;5.80;;;18.50;54.10;;;;;;4947415;28;20546;-80
2023/12/17 12:20:50;;;;;;;6.53;4.53;;;18.40;55.00;;;;;;4950247;28;20471;-82
2023/12/17 12:23:19;;;;;;;6.60;6.00;;;18.60;55.00;;;;;;4952563;28;21375;-81
2023/12/17 12:25:47;;;;;;;5.60;5.07;;;18.70;54.80;;;;;;4947456;28;20464;-87
2023/12/17 12:28:20;;;;;;;8.87;6.10;;;18.90;54.20;;;;;;4948099;28;20882;-79
2023/12/17 12:30:51;;;;;;;5.70;5.10;;;19.00;53.50;;;;;;4949016;28;20463;-79
2023/12/17 12:33:20;;;;;;;5.87;5.30;;;18.90;53.50;;;;;;4952106;28;20467;-87
2023/12/17 12:35:49;;;;;;;6.10;5.50;;;19.00;54.00;;;;;;4949340;28;20956;-79
2023/12/17 12:38:21;;;;;;;5.63;4.87;;;19.00;53.40;;;;;;4950099;28;20474;-85
2023/12/17 12:40:51;;;;;;;5.07;4.60;;;18.90;53.70;;;;;;4948698;28;20463;-79
2023/12/17 12:43:23;;;;;;;6.17;4.77;;;18.70;54.30;;;;;;4956995;28;20479;-81
2023/12/17 12:45:52;;;;;;;4.70;4.40;;;18.80;54.20;;;;;;4954757;28;20487;-85
2023/12/17 12:48:22;;;;;;;5.63;4.23;;;18.80;53.40;;;;;;4954936;28;20971;-79
2023/12/17 12:50:51;;;;;;;4.47;4.07;;;18.70;53.80;;;;;;4954540;28;20464;-83
2023/12/17 12:53:21;;;;;;;6.10;4.07;;;18.60;53.40;;;;;;4947363;28;20459;-79
2023/12/17 12:55:54;;;;;;;5.70;4.47;;;18.40;53.50;;;;;;4974160;28;20524;-84